createdAt,value
2023-02-16T00:02:18.998Z,91.60
2023-02-16T00:05:42.623Z,90.70
2023-02-16T00:09:06.772Z,89.90
2023-02-16T00:12:48.979Z,88.50
2023-02-16T00:16:17.073Z,87.10
2023-02-16T00:19:42.781Z,85.90
2023-02-16T00:23:06.731Z,85.40
2023-02-16T00:26:33.865Z,85.20
2023-02-16T00:29:57.793Z,84.60
2023-02-16T00:33:25.494Z,84.50
2023-02-16T00:36:49.733Z,84.30
2023-02-16T00:40:17.019Z,84.20
2023-02-16T00:43:41.150Z,84.10
2023-02-16T00:47:13.974Z,83.90
2023-02-16T00:50:46.496Z,84.00
2023-02-16T00:54:10.027Z,84.10
2023-02-16T00:57:36.580Z,84.30
2023-02-16T01:01:09.293Z,84.40
2023-02-16T01:04:33.892Z,84.20
2023-02-16T01:08:19.016Z,84.40
2023-02-16T01:11:42.822Z,84.40
2023-02-16T01:15:11.089Z,84.40
2023-02-16T01:18:34.794Z,84.60
2023-02-16T01:21:58.796Z,84.50
2023-02-16T01:25:27.199Z,84.60
2023-02-16T01:28:51.938Z,84.60
2023-02-16T01:32:18.042Z,84.80
2023-02-16T01:35:42.064Z,84.90
2023-02-16T01:39:06.188Z,85.00
2023-02-16T01:42:37.899Z,85.30
2023-02-16T01:46:08.642Z,85.30
2023-02-16T01:49:33.204Z,85.50
2023-02-16T01:52:59.666Z,85.70
2023-02-16T01:56:31.533Z,85.80
2023-02-16T02:00:14.334Z,85.80
2023-02-16T02:03:57.102Z,86.00
2023-02-16T02:07:32.585Z,86.20
2023-02-16T02:11:06.502Z,86.80
2023-02-16T02:14:37.977Z,86.80
2023-02-16T02:18:03.451Z,87.00
2023-02-16T02:22:06.125Z,87.00
2023-02-16T02:26:16.134Z,87.20
2023-02-16T02:30:16.698Z,87.10
2023-02-16T02:33:54.781Z,87.00
2023-02-16T02:37:27.565Z,87.10
2023-02-16T02:41:01.308Z,87.20
2023-02-16T02:44:29.929Z,87.40
2023-02-16T02:47:55.976Z,87.50
2023-02-16T02:51:34.332Z,87.60
2023-02-16T02:55:21.918Z,87.70
2023-02-16T02:59:06.853Z,87.80
2023-02-16T03:02:33.139Z,87.60
2023-02-16T03:06:06.552Z,87.50
2023-02-16T03:09:31.048Z,87.50
2023-02-16T03:12:55.381Z,87.80
2023-02-16T03:16:25.929Z,87.80
2023-02-16T03:20:10.171Z,87.60
2023-02-16T03:23:55.192Z,87.70
2023-02-16T03:27:40.944Z,87.60
2023-02-16T03:31:07.378Z,87.20
2023-02-16T03:34:32.984Z,87.10
2023-02-16T03:37:56.566Z,86.80
2023-02-16T03:41:22.318Z,86.80
2023-02-16T03:44:48.359Z,86.80
2023-02-16T03:48:12.380Z,86.80
2023-02-16T03:51:36.077Z,86.80
2023-02-16T03:55:00.397Z,86.90
2023-02-16T03:58:25.974Z,86.90
2023-02-16T04:01:50.090Z,86.90
2023-02-16T04:05:13.993Z,86.90
2023-02-16T04:08:38.034Z,86.90
2023-02-16T04:12:20.224Z,87.10
2023-02-16T04:15:45.434Z,87.00
2023-02-16T04:19:11.382Z,87.00
2023-02-16T04:22:34.927Z,86.70
2023-02-16T04:25:58.990Z,86.40
2023-02-16T04:29:23.071Z,86.40
2023-02-16T04:32:50.579Z,86.40
2023-02-16T04:36:15.064Z,86.50
2023-02-16T04:39:40.372Z,86.50
2023-02-16T04:43:03.916Z,86.50
2023-02-16T04:46:28.151Z,86.70
2023-02-16T04:49:53.642Z,86.70
2023-02-16T04:53:18.108Z,86.50
2023-02-16T04:56:44.323Z,86.40
2023-02-16T05:00:11.578Z,86.50
2023-02-16T05:03:36.228Z,86.30
2023-02-16T05:07:01.572Z,86.10
2023-02-16T05:10:30.594Z,86.10
2023-02-16T05:14:14.468Z,85.50
2023-02-16T05:17:38.059Z,86.20
2023-02-16T05:21:20.315Z,85.50
2023-02-16T05:24:55.038Z,85.40
2023-02-16T05:28:21.805Z,85.20
2023-02-16T05:31:46.453Z,85.20
2023-02-16T05:35:10.110Z,84.90
2023-02-16T05:38:36.611Z,84.90
2023-02-16T05:42:02.552Z,84.80
2023-02-16T05:45:26.195Z,84.60
2023-02-16T05:48:50.151Z,84.40
2023-02-16T05:52:14.132Z,83.90
2023-02-16T05:55:40.340Z,83.50
2023-02-16T05:59:05.581Z,83.40
2023-02-16T06:02:29.421Z,83.20
2023-02-16T06:05:54.827Z,83.10
2023-02-16T06:09:19.159Z,82.90
2023-02-16T06:12:44.863Z,82.60
2023-02-16T06:16:10.640Z,82.50
2023-02-16T06:19:37.520Z,82.50
2023-02-16T06:23:01.154Z,82.60
2023-02-16T06:26:25.659Z,82.40
2023-02-16T06:29:50.242Z,82.60
2023-02-16T06:33:17.939Z,82.20
2023-02-16T06:36:42.920Z,82.30
2023-02-16T06:40:09.881Z,82.30
2023-02-16T06:43:36.758Z,81.70
2023-02-16T06:47:01.204Z,81.30
2023-02-16T06:50:26.663Z,81.30
2023-02-16T06:53:50.361Z,81.10
2023-02-16T06:57:14.177Z,80.80
2023-02-16T07:00:38.227Z,80.90
2023-02-16T07:04:09.574Z,80.10
2023-02-16T07:07:34.503Z,80.20
2023-02-16T07:10:58.222Z,79.70
2023-02-16T07:14:22.515Z,79.50
2023-02-16T07:17:46.261Z,79.50
2023-02-16T07:21:10.272Z,79.20
2023-02-16T07:24:35.724Z,78.70
2023-02-16T07:28:00.375Z,78.40
2023-02-16T07:31:28.341Z,77.60
2023-02-16T07:34:52.211Z,76.50
2023-02-16T07:38:16.220Z,75.90
2023-02-16T07:41:41.148Z,75.60
2023-02-16T07:45:05.884Z,74.90
2023-02-16T07:48:29.476Z,73.60
2023-02-16T07:51:53.210Z,73.30
2023-02-16T07:55:16.830Z,73.20
2023-02-16T07:58:42.316Z,72.70
2023-02-16T08:02:05.972Z,71.60
2023-02-16T08:05:29.962Z,71.80
2023-02-16T08:08:53.550Z,71.60
2023-02-16T08:12:18.127Z,71.80
2023-02-16T08:15:45.257Z,71.80
2023-02-16T08:19:11.064Z,71.90
2023-02-16T08:22:34.791Z,71.30
2023-02-16T08:25:59.037Z,71.50
2023-02-16T08:29:23.803Z,71.70
2023-02-16T08:32:50.823Z,71.60
2023-02-16T08:36:18.972Z,71.80
2023-02-16T08:39:42.828Z,71.70
2023-02-16T08:43:07.012Z,71.40
2023-02-16T08:46:32.409Z,70.70
2023-02-16T08:49:57.877Z,70.70
2023-02-16T08:53:22.996Z,71.00
2023-02-16T08:56:49.527Z,71.40
2023-02-16T09:00:31.847Z,71.20
2023-02-16T09:03:55.916Z,71.20
2023-02-16T09:07:22.191Z,70.30
2023-02-16T09:10:46.628Z,69.40
2023-02-16T09:14:12.406Z,69.30
2023-02-16T09:17:38.715Z,68.80
2023-02-16T09:21:06.741Z,68.00
2023-02-16T09:24:32.197Z,68.60
2023-02-16T09:27:56.847Z,68.00
2023-02-16T09:31:25.742Z,68.10
2023-02-16T09:34:50.105Z,68.40
2023-02-16T09:38:16.638Z,67.80
2023-02-16T09:42:04.801Z,68.80
2023-02-16T09:45:29.674Z,67.50
2023-02-16T09:48:53.840Z,66.20
2023-02-16T09:52:26.136Z,64.80
2023-02-16T09:55:59.507Z,64.10
2023-02-16T09:59:34.986Z,62.00
2023-02-16T10:03:05.428Z,60.10
2023-02-16T10:06:46.002Z,61.20
2023-02-16T10:10:14.736Z,62.30
2023-02-16T10:13:43.891Z,62.10
2023-02-16T10:17:23.931Z,62.10
2023-02-16T10:20:52.215Z,62.60
2023-02-16T10:24:16.309Z,64.10
2023-02-16T10:27:42.982Z,64.50
2023-02-16T10:31:17.754Z,65.30
2023-02-16T10:34:50.124Z,65.60
2023-02-16T10:38:20.050Z,66.10
2023-02-16T10:41:47.802Z,66.70
2023-02-16T10:45:21.433Z,67.10
2023-02-16T10:48:46.400Z,66.60
2023-02-16T10:52:12.940Z,67.10
2023-02-16T10:55:38.279Z,67.30
2023-02-16T10:59:06.940Z,67.50
2023-02-16T11:02:37.476Z,67.90
2023-02-16T11:06:15.105Z,68.30
2023-02-16T11:09:41.961Z,68.90
2023-02-16T11:13:05.790Z,69.30
2023-02-16T11:16:30.667Z,69.40
2023-02-16T11:19:57.251Z,69.80
2023-02-16T11:23:24.837Z,69.60
2023-02-16T11:27:02.016Z,69.50
2023-02-16T11:30:32.777Z,69.20
2023-02-16T11:33:59.533Z,69.40
2023-02-16T11:37:27.644Z,69.70
2023-02-16T11:40:53.316Z,69.40
2023-02-16T11:44:28.068Z,69.70
2023-02-16T11:47:55.776Z,70.20
2023-02-16T11:51:32.083Z,70.20
2023-02-16T11:54:58.415Z,70.40
2023-02-16T11:58:25.075Z,71.20
2023-02-16T12:02:04.476Z,72.00
2023-02-16T12:05:37.860Z,70.90
2023-02-16T12:09:14.971Z,70.20
2023-02-16T12:12:50.471Z,69.90
2023-02-16T12:16:25.829Z,70.60
2023-02-16T12:19:58.987Z,70.50
2023-02-16T12:23:34.694Z,70.80
2023-02-16T12:27:01.361Z,71.40
2023-02-16T12:30:41.183Z,71.90
2023-02-16T12:34:20.640Z,72.40
2023-02-16T12:37:57.304Z,71.40
2023-02-16T12:41:35.644Z,71.10
2023-02-16T12:45:07.080Z,69.80
2023-02-16T12:48:41.691Z,68.60
2023-02-16T12:52:14.389Z,69.00
2023-02-16T12:55:51.607Z,68.30
2023-02-16T12:59:32.389Z,67.80
2023-02-16T13:03:05.504Z,67.80
2023-02-16T13:06:40.192Z,67.50
2023-02-16T13:10:15.973Z,67.20
2023-02-16T13:13:42.603Z,67.50
2023-02-16T13:17:13.543Z,67.40
2023-02-16T13:20:42.332Z,67.10
2023-02-16T13:24:17.595Z,67.20
2023-02-16T13:27:47.677Z,67.10
2023-02-16T13:31:27.163Z,67.00
2023-02-16T13:35:08.080Z,68.60
2023-02-16T13:39:00.699Z,70.60
2023-02-16T13:43:01.286Z,74.10
2023-02-16T13:46:31.405Z,75.00
2023-02-16T13:49:59.674Z,75.80
2023-02-16T13:53:24.491Z,74.30
2023-02-16T13:56:48.108Z,74.70
2023-02-16T14:00:29.443Z,73.80
2023-02-16T14:03:54.371Z,74.00
2023-02-16T14:07:35.712Z,75.30
2023-02-16T14:11:11.670Z,73.70
2023-02-16T14:14:38.313Z,74.40
2023-02-16T14:18:20.673Z,74.00
2023-02-16T14:21:47.970Z,74.80
2023-02-16T14:25:40.627Z,74.70
2023-02-16T14:29:13.438Z,74.10
2023-02-16T14:32:39.229Z,74.90
2023-02-16T14:36:14.198Z,74.80
2023-02-16T14:40:04.117Z,75.20
2023-02-16T14:43:29.232Z,75.70
2023-02-16T14:47:05.498Z,76.20
2023-02-16T14:50:54.103Z,76.70
2023-02-16T14:54:50.369Z,77.50
2023-02-16T14:58:27.662Z,78.60
2023-02-16T15:01:52.179Z,78.40
2023-02-16T15:05:19.051Z,79.00
2023-02-16T15:08:48.953Z,80.10
2023-02-16T15:12:24.403Z,80.30
2023-02-16T15:15:52.139Z,80.90
2023-02-16T15:19:21.659Z,80.90
2023-02-16T15:22:51.095Z,81.30
2023-02-16T15:26:20.431Z,81.80
2023-02-16T15:29:43.956Z,82.00
2023-02-16T15:33:16.000Z,82.10
2023-02-16T15:36:42.146Z,82.60
2023-02-16T15:40:25.919Z,83.10
2023-02-16T15:43:51.991Z,83.30
2023-02-16T15:47:18.348Z,83.50
2023-02-16T15:50:43.541Z,83.50
2023-02-16T15:54:14.300Z,83.70
2023-02-16T15:57:39.951Z,83.90
2023-02-16T16:01:03.841Z,85.00
2023-02-16T16:04:28.569Z,84.50
2023-02-16T16:07:54.555Z,84.30
2023-02-16T16:11:18.554Z,84.60
2023-02-16T16:14:51.413Z,84.50
2023-02-16T16:18:37.486Z,84.90
2023-02-16T16:22:02.494Z,85.00
2023-02-16T16:25:38.274Z,85.30
2023-02-16T16:29:02.271Z,85.20
2023-02-16T16:32:28.659Z,85.20
2023-02-16T16:35:52.441Z,85.30
2023-02-16T16:39:25.495Z,85.30
2023-02-16T16:43:09.632Z,85.60
2023-02-16T16:46:33.688Z,85.90
2023-02-16T16:49:59.696Z,87.20
2023-02-16T16:53:53.732Z,87.50
2023-02-16T16:57:19.586Z,87.70
2023-02-16T17:00:44.525Z,87.90
2023-02-16T17:04:08.214Z,87.80
2023-02-16T17:07:33.092Z,88.10
2023-02-16T17:10:56.821Z,88.60
2023-02-16T17:14:21.498Z,88.80
2023-02-16T17:17:46.578Z,89.70
2023-02-16T17:21:13.267Z,89.20
2023-02-16T17:24:36.806Z,89.20
2023-02-16T17:28:00.509Z,89.30
2023-02-16T17:31:24.144Z,89.40
2023-02-16T17:34:49.063Z,89.30
2023-02-16T17:38:18.063Z,89.50
2023-02-16T17:41:41.791Z,89.50
2023-02-16T17:45:05.982Z,89.50
2023-02-16T17:48:31.408Z,89.60
2023-02-16T17:51:57.019Z,89.60
2023-02-16T17:55:20.731Z,89.70
2023-02-16T17:58:44.962Z,89.60
2023-02-16T18:02:09.956Z,89.50
2023-02-16T18:05:35.318Z,89.60
2023-02-16T18:09:00.222Z,89.40
2023-02-16T18:12:23.892Z,89.30
2023-02-16T18:15:49.082Z,89.30
2023-02-16T18:19:15.663Z,89.00
2023-02-16T18:22:44.807Z,89.20
2023-02-16T18:26:14.190Z,89.20
2023-02-16T18:29:37.751Z,89.00
2023-02-16T18:33:01.390Z,89.00
2023-02-16T18:36:24.958Z,89.00
2023-02-16T18:39:48.599Z,89.20
2023-02-16T18:43:13.767Z,89.20
2023-02-16T18:46:37.504Z,88.70
2023-02-16T18:50:01.105Z,88.10
2023-02-16T18:53:24.696Z,87.90
2023-02-16T18:56:48.504Z,87.50
2023-02-16T19:00:15.168Z,87.30
2023-02-16T19:03:38.851Z,87.40
2023-02-16T19:07:02.426Z,87.10
2023-02-16T19:10:26.232Z,86.80
2023-02-16T19:13:50.478Z,86.90
2023-02-16T19:17:15.386Z,87.30
2023-02-16T19:20:38.956Z,87.40
2023-02-16T19:24:02.624Z,87.40
2023-02-16T19:27:26.159Z,88.60
2023-02-16T19:30:50.284Z,90.00
2023-02-16T19:34:15.235Z,90.50
2023-02-16T19:37:38.837Z,91.50
2023-02-16T19:41:02.797Z,92.20
2023-02-16T19:44:26.434Z,93.10
2023-02-16T19:47:51.516Z,93.70
2023-02-16T19:51:16.674Z,94.20
2023-02-16T19:54:40.211Z,94.50
2023-02-16T19:58:06.206Z,94.90
2023-02-16T20:01:30.156Z,95.30
2023-02-16T20:04:55.120Z,95.50
2023-02-16T20:08:20.504Z,95.80
2023-02-16T20:11:44.113Z,96.00
2023-02-16T20:15:08.290Z,96.10
2023-02-16T20:18:32.215Z,96.30
2023-02-16T20:21:55.781Z,96.60
2023-02-16T20:25:20.963Z,96.90
2023-02-16T20:28:44.518Z,97.10
2023-02-16T20:32:08.144Z,97.20
2023-02-16T20:35:31.705Z,97.30
2023-02-16T20:38:55.536Z,97.40
2023-02-16T20:42:20.407Z,97.50
2023-02-16T20:45:44.023Z,97.70
2023-02-16T20:49:08.154Z,97.70
2023-02-16T20:52:31.721Z,97.70
2023-02-16T20:56:02.502Z,97.60
2023-02-16T20:59:28.535Z,97.50
2023-02-16T21:02:53.199Z,97.40
2023-02-16T21:06:17.317Z,97.50
2023-02-16T21:09:41.276Z,97.50
2023-02-16T21:13:04.908Z,97.70
2023-02-16T21:16:31.761Z,97.80
2023-02-16T21:19:55.406Z,97.90
2023-02-16T21:23:19.100Z,98.00
2023-02-16T21:26:42.642Z,98.10
2023-02-16T21:30:07.546Z,98.30
2023-02-16T21:33:33.168Z,98.40
2023-02-16T21:36:56.913Z,98.50
2023-02-16T21:40:40.665Z,98.50
2023-02-16T21:44:06.939Z,98.50
2023-02-16T21:47:48.103Z,98.60
2023-02-16T21:51:13.698Z,98.70
2023-02-16T21:54:53.955Z,98.80
2023-02-16T21:58:17.604Z,98.90
2023-02-16T22:01:43.135Z,99.00
2023-02-16T22:05:07.200Z,99.10
2023-02-16T22:08:37.799Z,99.10
2023-02-16T22:12:01.594Z,99.10
2023-02-16T22:15:25.900Z,99.10
2023-02-16T22:18:49.979Z,99.20
2023-02-16T22:22:13.488Z,99.20
2023-02-16T22:25:41.138Z,99.30
2023-02-16T22:29:06.601Z,99.30
2023-02-16T22:32:30.711Z,99.30
2023-02-16T22:35:54.336Z,99.20
2023-02-16T22:39:19.378Z,99.20
2023-02-16T22:42:44.334Z,99.20
2023-02-16T22:46:10.152Z,99.10
2023-02-16T22:49:33.791Z,99.00
2023-02-16T22:52:57.336Z,99.00
2023-02-16T22:56:20.989Z,99.00
2023-02-16T22:59:46.298Z,99.10
2023-02-16T23:03:09.838Z,99.30
2023-02-16T23:06:35.213Z,99.60
2023-02-16T23:09:58.898Z,99.70
2023-02-16T23:13:22.503Z,99.90
2023-02-16T23:16:49.527Z,99.90
2023-02-16T23:20:13.270Z,99.90
2023-02-16T23:23:37.159Z,99.90
2023-02-16T23:27:00.800Z,99.90
2023-02-16T23:30:24.401Z,99.90
2023-02-16T23:33:49.716Z,99.90
2023-02-16T23:37:13.292Z,99.90
2023-02-16T23:40:36.786Z,99.90
2023-02-16T23:44:01.298Z,99.90
2023-02-16T23:47:25.709Z,99.90
2023-02-16T23:50:51.980Z,99.90
2023-02-16T23:54:16.490Z,99.90
2023-02-16T23:57:40.522Z,99.90
